Upstream stations:
Downstream station:
SHEF ID: CDNT2 Canadian Rv nr Canadian, TX
STATION TYPE:
Regulating: Stage = 8.00, Flow = 5231
STAGE RIV-FLOW BAT-LOAD
ft cfs volt
Ccp-Rev Ccp-Rev Ccp-Rev
(US/Central)
05/22 00:00 1.14 32 12.33
05/22 01:00 1.15 33 12.25
05/22 02:00 1.15 33 12.25
05/22 03:00 1.15 33 12.25
05/22 04:00 1.15 33 12.17
05/22 05:00 1.15 33 12.17
05/22 06:00 1.15 33 12.17
05/22 07:00 1.15 33 12.09
05/22 08:00 1.16 34 12.17
05/22 09:00 1.15 33 12.17
05/22 10:00 1.10 28 12.33
05/22 11:00 1.16 34 12.65
05/22 12:00 1.12 30 12.97
05/22 13:00 1.12 30 13.21
05/22 14:00 1.10 28 13.37
05/22 15:00 1.14 32 13.37
05/22 16:00 1.14 32 13.29
05/22 17:00 1.13 31 13.13
05/22 18:00 1.11 29 12.81
05/22 19:00 1.13 31 12.65
05/22 20:00 1.13 31 12.49
05/22 21:00 1.13 31 12.41
05/22 22:00 1.12 30 12.41
05/22 23:00 ---- ---- ----